Time;durP1;ratioP1;P1;durP2;ratioP2;P2;SDS_P1;SDS_P2;PMS_P1;PMS_P2;Temp;Humidity;BMP_temperature;BMP_pressure;BME280_temperature;BME280_humidity;BME280_pressure;Samples;Min_cycle;Max_cycle;Signal;HPM_P1;HPM_P2
2021/05/03 00:01:44;;;;;;;1.16;1.06;;;;;;;2.46;72.64;99862.63;2005557;78;21208;-71
2021/05/03 00:04:45;;;;;;;1.10;0.88;;;;;;;2.48;72.98;99860.97;2006872;80;20330;-71
2021/05/03 00:07:47;;;;;;;1.56;1.00;;;;;;;2.47;72.97;99863.50;2006479;80;20354;-71
2021/05/03 00:10:49;;;;;;;2.96;1.01;;;;;;;2.40;73.15;99865.84;2010147;80;20315;-71
2021/05/03 00:13:51;;;;;;;1.20;1.10;;;;;;;2.34;73.48;99867.34;2006339;80;20327;-71
2021/05/03 00:16:52;;;;;;;1.24;1.00;;;;;;;2.29;73.64;99869.69;2002191;78;20809;-71
2021/05/03 00:19:54;;;;;;;2.51;2.08;;;;;;;2.25;73.70;99870.41;2000708;81;20474;-71
2021/05/03 00:22:56;;;;;;;1.08;0.98;;;;;;;2.23;73.72;99866.06;2001437;81;20312;-71
2021/05/03 00:25:57;;;;;;;1.20;1.08;;;;;;;2.20;73.90;99871.06;2001547;81;20742;-71
2021/05/03 00:28:59;;;;;;;0.80;0.80;;;;;;;2.11;74.03;99869.03;2000917;81;20909;-71
2021/05/03 00:32:01;;;;;;;2.10;0.99;;;;;;;2.08;73.87;99867.25;2003428;80;21096;-71
2021/05/03 00:35:03;;;;;;;1.05;0.90;;;;;;;2.07;73.59;99867.19;2005214;80;20328;-71
2021/05/03 00:38:05;;;;;;;1.31;1.21;;;;;;;2.03;73.93;99862.78;2009359;80;20331;-71
2021/05/03 00:41:07;;;;;;;2.75;1.23;;;;;;;2.02;73.84;99866.16;2006059;80;20312;-72
2021/05/03 00:44:09;;;;;;;0.98;0.98;;;;;;;1.97;73.96;99868.50;2006583;80;20516;-71
2021/05/03 00:47:11;;;;;;;1.29;1.19;;;;;;;1.90;74.08;99873.38;2001424;78;21867;-71
2021/05/03 00:50:15;;;;;;;1.38;1.06;;;;;;;1.85;74.21;99874.88;2000714;81;20332;-71
2021/05/03 00:53:17;;;;;;;1.15;1.06;;;;;;;1.83;74.52;99871.41;2000954;81;20301;-71
2021/05/03 00:56:19;;;;;;;2.86;1.20;;;;;;;1.80;74.65;99862.78;2001157;81;21150;-71
2021/05/03 00:59:21;;;;;;;1.11;1.05;;;;;;;1.73;74.88;99873.59;2001699;81;20313;-72
2021/05/03 01:02:23;;;;;;;1.51;1.10;;;;;;;1.69;75.23;99878.53;2003375;79;53445;-74
2021/05/03 01:05:29;;;;;;;1.19;1.00;;;;;;;1.59;75.52;99873.88;2006326;80;20319;-71
2021/05/03 01:08:30;;;;;;;1.27;1.10;;;;;;;1.54;75.69;99872.81;2006905;80;20877;-70
2021/05/03 01:11:33;;;;;;;1.60;0.89;;;;;;;1.57;75.84;99867.81;2006092;80;21089;-71
2021/05/03 01:14:35;;;;;;;1.65;1.10;;;;;;;1.52;75.54;99873.63;2005693;80;20713;-71
2021/05/03 01:17:40;;;;;;;1.17;1.04;;;;;;;1.43;75.15;99875.81;2001787;78;20801;-71
2021/05/03 01:20:42;;;;;;;1.30;1.20;;;;;;;1.42;74.98;99868.97;2006298;80;20539;-71
2021/05/03 01:23:44;;;;;;;1.63;1.05;;;;;;;1.42;74.89;99876.63;2005934;80;20323;-71
2021/05/03 01:26:47;;;;;;;1.24;1.15;;;;;;;1.36;74.87;99872.97;2006088;80;20331;-71
2021/05/03 01:29:48;;;;;;;0.94;0.90;;;;;;;1.31;74.92;99869.38;2005760;80;20347;-71
2021/05/03 01:32:50;;;;;;;1.17;1.08;;;;;;;1.32;74.91;99876.22;2005656;79;22896;-71
2021/05/03 01:35:52;;;;;;;1.35;1.00;;;;;;;1.25;75.12;99882.75;2006343;80;20384;-70
2021/05/03 01:38:53;;;;;;;1.11;1.00;;;;;;;1.21;75.36;99875.78;2006011;80;20325;-70
2021/05/03 01:41:55;;;;;;;3.53;1.30;;;;;;;1.16;75.62;99869.63;2005689;80;20349;-71
2021/05/03 01:44:59;;;;;;;3.30;1.54;;;;;;;1.09;76.09;99877.88;2009083;80;20331;-71
2021/05/03 01:48:01;;;;;;;1.74;1.23;;;;;;;1.05;76.02;99871.72;1999140;78;21590;-71
2021/05/03 01:51:05;;;;;;;2.28;1.20;;;;;;;0.98;75.81;99885.06;2001169;81;20358;-71
2021/05/03 01:54:07;;;;;;;1.61;1.20;;;;;;;0.95;75.92;99879.84;2000946;81;20743;-70
2021/05/03 01:57:09;;;;;;;3.97;1.36;;;;;;;0.93;76.17;99884.03;2001267;81;20858;-70
2021/05/03 02:00:12;;;;;;;1.30;1.20;;;;;;;0.90;76.35;99884.78;2001930;80;21033;-71
2021/05/03 02:03:22;;;;;;;1.56;1.30;;;;;;;0.90;76.46;99886.47;2009545;80;20327;-71
2021/05/03 02:06:24;;;;;;;1.10;1.04;;;;;;;0.89;76.47;99885.56;2007805;80;20307;-70
2021/05/03 02:09:25;;;;;;;1.85;1.15;;;;;;;0.86;76.28;99887.97;2008024;80;20376;-71
2021/05/03 02:12:27;;;;;;;1.40;1.30;;;;;;;0.87;76.21;99891.41;2008038;80;20323;-70
2021/05/03 02:15:30;;;;;;;1.50;1.40;;;;;;;0.91;76.24;99895.88;2006416;78;20387;-70
2021/05/03 02:18:32;;;;;;;1.17;1.08;;;;;;;0.92;76.15;99894.19;2002910;81;20769;-70
2021/05/03 02:21:34;;;;;;;3.69;1.30;;;;;;;0.86;76.36;99892.22;2002792;81;20890;-71
2021/05/03 02:24:36;;;;;;;1.69;1.19;;;;;;;0.79;76.44;99891.09;2002997;81;20831;-71
2021/05/03 02:27:38;;;;;;;1.50;1.40;;;;;;;0.73;76.55;99888.31;2003181;81;20338;-71
2021/05/03 02:30:40;;;;;;;1.89;1.46;;;;;;;0.67;76.47;99887.16;2006268;78;20331;-71
2021/05/03 02:33:42;;;;;;;1.61;1.51;;;;;;;0.62;76.11;99894.63;2007995;80;20372;-71
2021/05/03 02:36:43;;;;;;;1.69;1.59;;;;;;;0.64;76.37;99887.03;2006343;80;20344;-75
2021/05/03 02:39:45;;;;;;;1.94;1.54;;;;;;;0.64;76.49;99887.03;2007501;80;20344;-74
2021/05/03 02:42:51;;;;;;;1.45;1.35;;;;;;;0.63;76.67;99892.94;2008092;80;20952;-75
2021/05/03 02:45:53;;;;;;;1.52;1.42;;;;;;;0.59;76.68;99897.94;2005477;78;21684;-75
2021/05/03 02:48:56;;;;;;;2.42;1.69;;;;;;;0.56;76.67;99890.13;2002429;81;20324;-75
2021/05/03 02:51:57;;;;;;;2.00;1.66;;;;;;;0.51;76.86;99888.16;2004166;81;20350;-75
2021/05/03 02:54:59;;;;;;;1.81;1.56;;;;;;;0.49;76.92;99893.22;2003568;81;20381;-74
2021/05/03 02:58:01;;;;;;;1.61;1.41;;;;;;;0.47;76.92;99894.81;2003194;81;20313;-74
2021/05/03 03:01:02;;;;;;;1.86;1.50;;;;;;;0.46;77.10;99899.88;2003660;78;23030;-74
2021/05/03 03:04:04;;;;;;;1.96;1.84;;;;;;;0.47;77.12;99899.06;2007443;80;20316;-74
2021/05/03 03:07:06;;;;;;;2.22;1.75;;;;;;;0.46;77.25;99907.53;2007029;80;20315;-75
2021/05/03 03:10:09;;;;;;;2.31;1.75;;;;;;;0.41;77.37;99911.56;2006165;80;20404;-74
2021/05/03 03:13:10;;;;;;;1.66;1.56;;;;;;;0.35;77.47;99909.59;2005797;80;20392;-74
2021/05/03 03:16:16;;;;;;;1.94;1.84;;;;;;;0.32;77.69;99908.59;2003270;78;24868;-75
2021/05/03 03:19:18;;;;;;;3.33;1.59;;;;;;;0.29;77.82;99914.44;2001899;81;20313;-75
2021/05/03 03:22:19;;;;;;;2.21;1.55;;;;;;;0.24;77.96;99916.81;2001391;81;20337;-75
2021/05/03 03:25:22;;;;;;;1.95;1.63;;;;;;;0.24;77.92;99921.03;2004969;80;20534;-75
2021/05/03 03:28:23;;;;;;;1.60;1.50;;;;;;;0.25;77.85;99915.13;2001048;81;20320;-74
2021/05/03 03:31:25;;;;;;;2.47;1.91;;;;;;;0.27;77.70;99910.94;1999699;78;22106;-74
2021/05/03 03:34:27;;;;;;;1.89;1.76;;;;;;;0.27;77.61;99908.41;2001873;81;20354;-74
2021/05/03 03:37:39;;;;;;;2.03;1.56;;;;;;;0.30;77.64;99913.63;2001738;81;20353;-75
2021/05/03 03:40:42;;;;;;;2.41;1.95;;;;;;;0.28;77.44;99921.22;2001437;81;20482;-75
2021/05/03 03:43:44;;;;;;;2.44;1.56;;;;;;;0.21;77.70;99914.13;2001875;81;20329;-75
2021/05/03 03:46:45;;;;;;;2.85;1.66;;;;;;;0.17;77.45;99921.53;2003195;80;23574;-74
2021/05/03 03:49:47;;;;;;;2.40;2.05;;;;;;;0.15;77.35;99918.06;2006664;80;20369;-75
2021/05/03 03:52:49;;;;;;;3.16;1.85;;;;;;;0.12;77.49;99923.91;2006264;80;20370;-74
2021/05/03 03:55:50;;;;;;;3.55;1.88;;;;;;;0.09;77.54;99928.00;2006359;80;20333;-74
2021/05/03 03:58:52;;;;;;;3.64;2.34;;;;;;;0.04;77.67;99919.28;2006573;80;20361;-75
2021/05/03 04:01:54;;;;;;;2.45;2.00;;;;;;;-0.01;77.85;99931.78;2002711;78;20434;-76
2021/05/03 04:05:29;;;;;;;2.35;2.15;;;;;;;-0.04;77.69;99926.56;2001789;81;20336;-75
2021/05/03 04:08:25;;;;;;;4.26;2.31;;;;;;;-0.05;77.87;99935.88;2000863;81;20316;-74
2021/05/03 04:21:34;;;;;;;2.55;2.35;;;;;;;-0.05;78.52;99938.44;2006358;80;20339;-74
2021/05/03 04:27:56;;;;;;;2.96;2.54;;;;;;;0.04;78.98;99943.13;2006686;80;20366;-75
2021/05/03 04:30:58;;;;;;;2.72;2.53;;;;;;;0.05;78.98;99937.19;2004211;78;20340;-75
2021/05/03 04:33:59;;;;;;;3.17;2.06;;;;;;;0.06;79.16;99944.06;2001067;81;20342;-75
2021/05/03 04:37:01;;;;;;;2.59;2.38;;;;;;;0.07;79.31;99938.16;2001189;81;20349;-75
2021/05/03 04:40:03;;;;;;;2.78;2.58;;;;;;;0.08;79.47;99944.13;2001034;81;20328;-75
2021/05/03 04:43:05;;;;;;;3.03;2.83;;;;;;;0.16;79.63;99946.22;2000963;81;20324;-74
2021/05/03 04:46:07;;;;;;;3.54;3.01;;;;;;;0.21;80.01;99944.75;2002340;78;22153;-74
2021/05/03 04:49:09;;;;;;;4.71;2.55;;;;;;;0.35;80.05;99945.34;2006535;80;20345;-75
2021/05/03 04:52:10;;;;;;;3.78;2.80;;;;;;;0.51;79.88;99958.00;2006196;80;20319;-74
2021/05/03 04:55:12;;;;;;;2.63;2.38;;;;;;;0.58;79.94;99960.06;2006169;80;20852;-75
2021/05/03 04:58:14;;;;;;;2.60;2.40;;;;;;;0.70;80.08;99959.69;2006617;80;20808;-74
2021/05/03 05:01:15;;;;;;;2.44;2.24;;;;;;;0.83;80.08;99967.09;2005996;80;20838;-74
2021/05/03 05:04:17;;;;;;;3.10;2.31;;;;;;;0.90;80.03;99966.56;2006518;80;20352;-75
2021/05/03 05:07:20;;;;;;;3.04;2.33;;;;;;;0.96;80.16;99965.94;2005647;80;21152;-75
2021/05/03 05:10:22;;;;;;;3.11;2.33;;;;;;;1.10;80.38;99966.56;2005803;80;20368;-75
2021/05/03 05:13:24;;;;;;;3.56;2.45;;;;;;;1.32;80.22;99965.75;2006036;80;20319;-74
2021/05/03 05:16:26;;;;;;;3.41;2.58;;;;;;;1.49;80.19;99972.44;2002725;78;23005;-75
2021/05/03 05:19:27;;;;;;;3.66;2.67;;;;;;;1.68;79.92;99974.06;2001310;81;20320;-75
2021/05/03 05:22:29;;;;;;;3.53;3.15;;;;;;;1.90;79.44;99971.53;2000922;81;21179;-74
2021/05/03 05:25:31;;;;;;;2.79;2.42;;;;;;;2.17;78.91;99970.88;2001783;81;20354;-74
2021/05/03 05:28:32;;;;;;;2.65;2.45;;;;;;;2.43;78.41;99977.84;2001111;81;20814;-75
2021/05/03 05:31:34;;;;;;;3.17;2.22;;;;;;;2.86;77.68;99975.13;2003375;78;23956;-75
2021/05/03 05:34:37;;;;;;;2.65;2.42;;;;;;;2.93;76.85;99974.56;2006731;80;20331;-74
2021/05/03 05:37:38;;;;;;;2.59;2.39;;;;;;;3.07;76.48;99974.16;2006679;80;20344;-74
2021/05/03 05:40:40;;;;;;;2.92;2.50;;;;;;;3.14;75.86;99976.13;2006506;80;20337;-74
2021/05/03 05:43:42;;;;;;;3.15;2.61;;;;;;;3.27;75.77;99978.28;2009858;80;20347;-74
2021/05/03 05:46:44;;;;;;;3.91;2.72;;;;;;;3.68;75.40;99981.34;2002213;78;20397;-74
2021/05/03 05:49:46;;;;;;;3.49;2.64;;;;;;;4.17;73.82;99978.63;2001068;81;20374;-74
2021/05/03 05:52:47;;;;;;;2.74;2.05;;;;;;;4.33;72.45;99979.97;2001785;81;20312;-74
2021/05/03 05:55:49;;;;;;;2.38;2.10;;;;;;;4.82;71.24;99982.25;2002263;81;21208;-74
2021/05/03 05:58:54;;;;;;;2.71;2.51;;;;;;;5.30;69.95;99982.69;2002019;81;20425;-74
2021/05/03 06:01:55;;;;;;;2.83;2.25;;;;;;;5.72;68.30;99972.59;2004178;78;23497;-74
2021/05/03 06:05:01;;;;;;;2.81;2.34;;;;;;;6.15;67.12;99977.94;2006657;80;20630;-74
2021/05/03 06:08:03;;;;;;;7.06;4.06;;;;;;;6.60;66.05;99981.50;2007053;80;20173;-75
2021/05/03 06:11:05;;;;;;;3.00;2.65;;;;;;;6.64;65.01;99974.69;2007029;80;20169;-75
2021/05/03 06:14:06;;;;;;;3.44;3.05;;;;;;;6.53;65.02;99977.06;2007022;80;20258;-75
2021/05/03 06:17:09;;;;;;;3.59;3.22;;;;;;;6.46;65.26;99974.31;2002219;78;25008;-74
2021/05/03 06:20:12;;;;;;;3.79;3.42;;;;;;;6.41;65.81;99987.13;2002253;81;20231;-74
2021/05/03 06:23:14;;;;;;;4.30;3.24;;;;;;;6.35;66.18;99980.13;2002517;81;20399;-75
2021/05/03 06:26:16;;;;;;;4.81;3.44;;;;;;;6.29;66.01;99981.72;2002560;81;20192;-74
2021/05/03 06:29:17;;;;;;;3.29;2.96;;;;;;;6.30;66.16;99986.03;2001396;81;20173;-76
2021/05/03 06:32:19;;;;;;;3.64;3.34;;;;;;;6.29;66.41;99986.88;2005257;78;22817;-72
2021/05/03 06:35:24;;;;;;;4.91;3.47;;;;;;;6.37;66.59;99980.16;2006432;80;20369;-73
2021/05/03 06:38:25;;;;;;;4.56;3.79;;;;;;;6.45;66.49;99977.72;2006617;80;20185;-72
2021/05/03 06:41:27;;;;;;;5.07;3.67;;;;;;;6.80;66.59;99981.91;2007036;80;20481;-73
2021/05/03 06:44:28;;;;;;;3.72;3.42;;;;;;;6.93;65.74;99988.19;2007135;80;20352;-73
2021/05/03 06:47:31;;;;;;;5.10;3.08;;;;;;;7.24;64.83;99982.78;2002848;78;22005;-73
2021/05/03 06:50:33;;;;;;;4.21;3.36;;;;;;;7.46;64.37;99989.19;2002143;81;20202;-74
2021/05/03 06:53:35;;;;;;;4.68;3.66;;;;;;;7.57;63.77;99992.84;2001744;81;20329;-72
2021/05/03 06:56:36;;;;;;;4.05;2.99;;;;;;;7.66;63.55;99989.53;2001785;81;20633;-73
2021/05/03 06:59:38;;;;;;;4.97;3.67;;;;;;;7.96;62.48;99993.47;2001577;81;20211;-72
2021/05/03 07:02:40;;;;;;;5.85;3.36;;;;;;;8.15;61.18;99988.59;2005653;78;22833;-73
2021/05/03 07:05:42;;;;;;;3.75;3.45;;;;;;;8.31;60.01;99987.13;2006267;80;20177;-73
2021/05/03 07:08:44;;;;;;;4.94;3.63;;;;;;;8.46;60.88;99986.50;2003808;80;20173;-72
2021/05/03 07:11:46;;;;;;;3.31;3.01;;;;;;;8.75;60.45;99992.03;2006301;80;20635;-73
2021/05/03 07:14:48;;;;;;;3.54;3.24;;;;;;;9.04;59.24;99988.09;2006613;80;20514;-75
2021/05/03 07:17:50;;;;;;;3.72;3.21;;;;;;;9.35;57.54;99991.00;2000924;78;20206;-74
2021/05/03 07:20:52;;;;;;;3.13;2.92;;;;;;;9.61;57.48;99986.06;2001344;81;20739;-76
2021/05/03 07:23:54;;;;;;;4.34;3.64;;;;;;;9.94;56.58;99982.88;2001801;81;20209;-75
2021/05/03 07:26:55;;;;;;;3.59;3.29;;;;;;;10.26;53.99;99984.03;2001800;81;20216;-76
2021/05/03 07:29:57;;;;;;;4.06;3.47;;;;;;;10.63;53.44;99973.84;2002983;81;20283;-75
2021/05/03 07:32:59;;;;;;;3.58;3.28;;;;;;;11.16;52.54;99975.75;2005676;78;23202;-74
2021/05/03 07:36:00;;;;;;;3.49;3.19;;;;;;;11.65;51.60;99973.22;2006839;80;20747;-74
2021/05/03 07:39:05;;;;;;;3.39;3.04;;;;;;;12.12;50.90;99974.97;2006048;80;20169;-75
2021/05/03 07:42:07;;;;;;;6.55;2.90;;;;;;;12.13;49.97;99971.50;2006105;80;20208;-74
2021/05/03 07:45:28;;;;;;;2.79;2.59;;;;;;;12.23;49.17;99978.44;2005564;78;20362;-74
2021/05/03 07:48:30;;;;;;;4.66;2.36;;;;;;;12.40;47.48;99974.06;2001600;81;20239;-76
2021/05/03 07:51:32;;;;;;;2.89;2.55;;;;;;;12.80;47.69;99971.34;2002061;81;20239;-74
2021/05/03 07:54:34;;;;;;;4.28;2.72;;;;;;;13.15;46.09;99964.22;2001604;81;20219;-78
2021/05/03 07:57:36;;;;;;;4.31;2.60;;;;;;;13.41;45.69;99960.59;2003610;81;20263;-76
2021/05/03 08:00:38;;;;;;;3.80;2.41;;;;;;;13.65;44.02;99959.56;2001434;78;21144;-75
2021/05/03 08:03:41;;;;;;;3.96;2.49;;;;;;;13.94;43.54;99962.78;2003914;80;20203;-76
2021/05/03 08:06:45;;;;;;;2.54;2.33;;;;;;;14.27;42.41;99958.13;2006419;80;20204;-81
2021/05/03 08:09:47;;;;;;;4.94;2.55;;;;;;;14.30;42.02;99952.88;2007881;80;20169;-76
2021/05/03 08:12:51;;;;;;;3.54;2.03;;;;;;;14.17;42.32;99962.56;2007178;80;20541;-76
2021/05/03 08:15:54;;;;;;;2.76;2.09;;;;;;;13.86;42.14;99960.25;2005157;78;32416;-78
2021/05/03 08:18:56;;;;;;;2.74;2.10;;;;;;;13.40;41.87;99964.94;2006737;80;20863;-76
2021/05/03 08:22:00;;;;;;;3.30;2.13;;;;;;;13.05;41.81;99962.50;2006355;80;20203;-76
2021/05/03 08:25:03;;;;;;;2.31;1.70;;;;;;;12.79;42.12;99961.78;2006020;80;20218;-76
2021/05/03 08:28:04;;;;;;;2.45;1.86;;;;;;;12.64;43.06;99953.16;2005896;80;20173;-75
2021/05/03 08:31:07;;;;;;;3.03;1.92;;;;;;;12.93;43.36;99958.25;2002856;78;26137;-76
2021/05/03 08:34:09;;;;;;;4.19;1.99;;;;;;;13.29;43.74;99948.53;2001710;81;20922;-75
2021/05/03 08:37:12;;;;;;;3.30;2.09;;;;;;;13.46;41.59;99950.97;2001763;81;20157;-76
2021/05/03 08:40:14;;;;;;;3.08;1.84;;;;;;;13.84;40.70;99946.34;2001521;81;20316;-77
2021/05/03 08:43:16;;;;;;;1.64;1.54;;;;;;;14.47;40.01;99949.22;2001790;81;20197;-76
2021/05/03 08:46:28;;;;;;;5.61;2.06;;;;;;;15.01;40.45;99953.78;2003391;78;21293;-77
2021/05/03 08:52:42;;;;;;;2.97;1.84;;;;;;;14.26;39.04;99952.03;2006041;80;20173;-77
2021/05/03 08:55:49;;;;;;;3.46;1.50;;;;;;;13.82;39.89;99955.03;2006983;80;20169;-76
2021/05/03 08:58:51;;;;;;;1.91;1.23;;;;;;;13.54;40.22;99949.19;2009492;80;20189;-76
2021/05/03 09:01:53;;;;;;;2.09;1.40;;;;;;;13.80;40.42;99943.75;2006124;78;20226;-76
2021/05/03 09:04:54;;;;;;;1.40;1.30;;;;;;;13.96;39.66;99953.19;2006974;80;20795;-76
2021/05/03 09:07:56;;;;;;;2.21;1.24;;;;;;;13.88;38.13;99947.19;2006443;80;20658;-76
2021/05/03 09:10:59;;;;;;;1.70;1.31;;;;;;;14.04;37.81;99940.09;2006074;80;20196;-76
2021/05/03 09:14:09;;;;;;;2.03;1.20;;;;;;;14.53;38.38;99935.22;2006384;80;20286;-76
2021/05/03 09:17:22;;;;;;;1.45;1.20;;;;;;;15.01;36.42;99932.88;2006164;79;20672;-76
2021/05/03 09:20:25;;;;;;;1.38;1.20;;;;;;;15.40;35.31;99932.28;2006616;80;20226;-76
2021/05/03 09:23:27;;;;;;;2.04;1.31;;;;;;;15.96;37.08;99930.50;2007213;80;20215;-76
2021/05/03 09:26:39;;;;;;;2.31;1.24;;;;;;;16.36;34.57;99915.84;2009927;80;20227;-76
2021/05/03 09:29:45;;;;;;;1.30;1.20;;;;;;;16.80;33.88;99920.19;2007146;80;20200;-76
2021/05/03 09:32:47;;;;;;;3.42;1.35;;;;;;;17.13;33.60;99916.84;2000900;78;21337;-76
2021/05/03 09:35:57;;;;;;;1.29;1.04;;;;;;;17.31;32.82;99912.06;2001833;81;20644;-77
2021/05/03 09:38:59;;;;;;;1.10;1.00;;;;;;;16.82;31.87;99916.63;2002442;81;20205;-77
2021/05/03 09:42:01;;;;;;;1.38;1.27;;;;;;;16.04;32.28;99909.44;2001404;81;20195;-76
2021/05/03 09:45:06;;;;;;;1.39;1.10;;;;;;;15.97;33.31;99906.03;2001883;80;20240;-76
2021/05/03 09:48:09;;;;;;;2.70;0.99;;;;;;;16.02;32.36;99900.75;2006683;78;20393;-77
2021/05/03 09:51:30;;;;;;;1.50;1.10;;;;;;;15.75;31.22;99893.38;2007187;80;20169;-78
2021/05/03 09:54:33;;;;;;;1.30;1.20;;;;;;;15.27;32.61;99893.28;2007591;80;20181;-78
2021/05/03 09:57:35;;;;;;;2.30;1.25;;;;;;;14.81;32.88;99893.91;2006077;80;20181;-77
2021/05/03 10:00:39;;;;;;;1.20;1.10;;;;;;;14.31;35.06;99890.16;2004939;79;24098;-78
2021/05/03 10:03:48;;;;;;;1.81;1.16;;;;;;;13.98;35.73;99890.50;2003126;81;20173;-76
2021/05/03 10:06:49;;;;;;;1.94;1.34;;;;;;;13.94;37.76;99875.75;2001827;81;20181;-77
2021/05/03 10:13:01;;;;;;;2.13;1.17;;;;;;;14.76;35.74;99877.44;2001709;81;20165;-77
2021/05/03 10:16:03;;;;;;;3.85;0.99;;;;;;;14.57;34.90;99871.59;2001834;78;21451;-76
2021/05/03 10:19:06;;;;;;;1.17;1.08;;;;;;;14.46;35.06;99871.72;2006744;80;20365;-77
2021/05/03 10:22:16;;;;;;;2.95;1.21;;;;;;;14.59;36.01;99867.22;2006967;80;20181;-77
2021/05/03 10:25:18;;;;;;;1.34;1.09;;;;;;;14.56;35.78;99862.03;2006229;80;20193;-76
2021/05/03 10:28:20;;;;;;;1.85;1.29;;;;;;;14.65;35.71;99854.03;2007733;80;20173;-77
2021/05/03 10:31:24;;;;;;;1.80;1.25;;;;;;;15.20;35.67;99855.00;2004251;78;21565;-77
2021/05/03 10:34:59;;;;;;;1.45;1.00;;;;;;;15.53;35.80;99853.56;2001719;81;20182;-78
2021/05/03 10:38:02;;;;;;;1.69;1.08;;;;;;;15.73;34.70;99846.28;1994986;80;20213;-77
2021/05/03 10:41:23;;;;;;;1.41;1.10;;;;;;;15.58;33.23;99838.66;2013279;81;20219;-83
2021/05/03 10:44:25;;;;;;;1.83;1.01;;;;;;;15.11;33.16;99829.84;2011533;81;20170;-83
2021/05/03 10:47:43;;;;;;;2.50;1.13;;;;;;;14.98;34.23;99828.31;2018899;78;22169;-83
2021/05/03 10:50:47;;;;;;;1.69;0.89;;;;;;;14.82;33.99;99819.81;2019392;80;20205;-83
2021/05/03 10:53:50;;;;;;;1.75;1.02;;;;;;;14.67;34.81;99825.28;2020890;80;20189;-82
2021/05/03 10:56:52;;;;;;;1.21;1.00;;;;;;;14.45;33.90;99822.09;2018853;80;20208;-82
2021/05/03 10:59:57;;;;;;;6.13;0.90;;;;;;;14.35;34.92;99821.31;2018325;80;20214;-82
2021/05/03 11:02:59;;;;;;;1.13;0.81;;;;;;;14.31;34.51;99816.13;2017474;78;20249;-83
2021/05/03 11:06:01;;;;;;;1.51;1.23;;;;;;;14.33;34.71;99810.00;2018895;80;20169;-83
2021/05/03 11:09:31;;;;;;;1.80;1.23;;;;;;;14.28;34.61;99810.97;2020521;80;20198;-83
2021/05/03 11:12:33;;;;;;;2.11;1.10;;;;;;;14.21;35.99;99799.75;2019620;80;20446;-83
2021/05/03 11:15:35;;;;;;;1.60;1.02;;;;;;;14.18;37.00;99798.03;2020036;80;20187;-83
2021/05/03 11:18:40;;;;;;;2.63;1.15;;;;;;;14.40;36.05;99793.38;2022064;80;20198;-82
2021/05/03 11:21:46;;;;;;;1.16;0.96;;;;;;;14.59;35.64;99793.16;2019517;80;20203;-85
2021/05/03 11:28:08;;;;;;;3.74;1.30;;;;;;;16.19;32.87;99772.91;2006236;80;20567;-77
2021/05/03 11:31:15;;;;;;;2.11;1.23;;;;;;;16.77;33.60;99771.63;2006396;80;20206;-77
2021/05/03 11:34:40;;;;;;;1.35;1.17;;;;;;;16.91;31.97;99772.19;2006233;80;20202;-76
2021/05/03 11:38:21;;;;;;;4.11;1.00;;;;;;;16.15;31.73;99772.97;2007213;80;20660;-76
2021/05/03 11:44:50;;;;;;;2.00;1.46;;;;;;;15.34;32.90;99761.44;2007052;80;20214;-76
2021/05/03 11:47:55;;;;;;;1.25;1.15;;;;;;;15.02;33.35;99755.00;2000614;78;21314;-76
2021/05/03 11:51:05;;;;;;;1.60;1.10;;;;;;;14.98;34.91;99753.34;2001668;81;20177;-77
2021/05/03 11:54:25;;;;;;;2.80;1.20;;;;;;;15.20;34.41;99758.19;2001946;81;20199;-77
2021/05/03 11:57:30;;;;;;;1.40;1.00;;;;;;;15.85;34.12;99758.78;2007987;81;20651;-81
2021/05/03 12:00:32;;;;;;;2.86;1.30;;;;;;;16.22;33.45;99745.78;2010847;78;28391;-83
2021/05/03 12:03:41;;;;;;;2.13;1.11;;;;;;;16.58;32.54;99742.31;2019189;80;20219;-83
2021/05/03 12:06:42;;;;;;;;;;;;;;;16.72;31.98;99736.81;2018903;80;20180;-84
2021/05/03 12:09:46;;;;;;;1.66;1.30;;;;;;;16.77;31.34;99734.06;2020868;80;20161;-85
2021/05/03 12:12:53;;;;;;;1.25;1.14;;;;;;;16.64;30.95;99749.19;2018430;80;20161;-85
2021/05/03 12:15:55;;;;;;;1.35;1.05;;;;;;;16.82;31.35;99733.03;2018805;80;20180;-85
2021/05/03 12:18:58;;;;;;;2.40;1.36;;;;;;;17.13;31.85;99729.66;2021799;80;20227;-85
2021/05/03 12:22:00;;;;;;;3.54;1.39;;;;;;;17.42;31.78;99724.53;2013139;80;20173;-81
2021/05/03 12:25:09;;;;;;;2.34;1.30;;;;;;;17.41;31.10;99714.03;2013492;80;20177;-80
2021/05/03 12:28:13;;;;;;;1.30;1.20;;;;;;;17.74;30.90;99720.16;2015475;80;20165;-81
2021/05/03 12:31:15;;;;;;;4.43;1.17;;;;;;;18.09;30.77;99712.09;2016718;80;20206;-81
2021/05/03 12:34:22;;;;;;;7.01;1.10;;;;;;;18.06;31.25;99706.94;2017743;80;20173;-81
2021/05/03 12:37:29;;;;;;;1.77;0.90;;;;;;;17.92;30.99;99701.22;2016571;80;20199;-84
2021/05/03 12:40:35;;;;;;;2.17;0.98;;;;;;;17.77;30.29;99691.16;2017016;80;20181;-79
2021/05/03 12:43:39;;;;;;;0.94;0.82;;;;;;;17.72;29.84;99680.81;2007899;80;20191;-77
2021/05/03 12:46:42;;;;;;;4.86;1.20;;;;;;;18.12;29.81;99669.97;2006552;78;22929;-77
2021/05/03 12:49:54;;;;;;;1.66;0.70;;;;;;;18.35;28.82;99674.53;2008533;80;20775;-77
2021/05/03 12:53:15;;;;;;;0.80;0.80;;;;;;;18.74;29.30;99670.69;2010454;80;20245;-81
2021/05/03 13:03:11;;;;;;;2.10;0.80;;;;;;;19.55;28.48;99648.50;2009182;78;70232;-76
2021/05/03 13:06:29;;;;;;;0.89;0.88;;;;;;;19.67;26.70;99649.84;2006331;81;20185;-81
2021/05/03 13:09:57;;;;;;;2.91;0.99;;;;;;;19.88;27.43;99638.50;2006344;81;20166;-75
2021/05/03 13:29:47;;;;;;;2.11;1.10;;;;;;;17.38;31.22;99615.22;2000268;81;20184;-76
2021/05/03 13:32:50;;;;;;;1.30;1.20;;;;;;;17.49;29.24;99613.16;1996320;81;20235;-75
2021/05/03 13:35:51;;;;;;;1.69;1.21;;;;;;;17.58;29.48;99601.53;1997329;81;20196;-77
2021/05/03 13:38:53;;;;;;;1.10;1.00;;;;;;;17.44;29.99;99595.84;1996889;81;20214;-76
2021/05/03 13:41:55;;;;;;;1.09;0.90;;;;;;;17.03;29.19;99596.97;1997732;81;20208;-77
2021/05/03 13:44:57;;;;;;;1.09;0.80;;;;;;;16.79;30.13;99588.88;1997286;81;20664;-77
2021/05/03 13:47:58;;;;;;;1.45;0.90;;;;;;;16.61;31.20;99586.69;1998269;81;20202;-77
2021/05/03 13:51:00;;;;;;;5.86;0.80;;;;;;;16.35;30.44;99582.13;1997433;81;20197;-77
2021/05/03 13:54:03;;;;;;;1.33;0.81;;;;;;;16.26;31.31;99580.59;1998733;81;20883;-77
2021/05/03 13:57:06;;;;;;;2.09;1.00;;;;;;;16.26;32.19;99577.97;1997850;81;20186;-77
2021/05/03 14:00:10;;;;;;;1.31;0.85;;;;;;;16.14;32.29;99573.00;1998701;81;20613;-77
2021/05/03 14:03:13;;;;;;;1.17;1.05;;;;;;;16.12;32.30;99568.72;1996687;81;20182;-76
2021/05/03 14:06:20;;;;;;;1.36;0.70;;;;;;;16.22;31.75;99563.22;1996406;81;20339;-76
2021/05/03 14:09:25;;;;;;;1.63;0.80;;;;;;;16.57;31.94;99559.72;1996969;81;20233;-76
2021/05/03 14:12:27;;;;;;;0.70;0.70;;;;;;;17.20;31.91;99552.75;1996900;81;20196;-77
2021/05/03 14:15:31;;;;;;;0.91;0.63;;;;;;;17.36;28.90;99547.94;1999078;81;20206;-77
2021/05/03 14:18:33;;;;;;;1.94;0.60;;;;;;;17.29;29.54;99552.50;2003611;81;20186;-77
2021/05/03 14:21:35;;;;;;;0.71;0.65;;;;;;;17.15;29.02;99544.16;2002572;81;20290;-77
2021/05/03 14:24:37;;;;;;;0.88;0.51;;;;;;;17.40;29.25;99526.78;2002622;81;20231;-77
2021/05/03 14:27:41;;;;;;;1.02;0.59;;;;;;;17.65;29.09;99523.44;2001065;81;20174;-78
2021/05/03 14:30:50;;;;;;;0.44;0.44;;;;;;;17.71;28.82;99520.63;2003169;81;20262;-78
2021/05/03 14:34:04;;;;;;;3.24;0.55;;;;;;;17.67;28.22;99511.97;2002892;81;20200;-78
2021/05/03 14:37:05;;;;;;;1.13;0.60;;;;;;;17.61;28.56;99512.16;2002450;81;20307;-78
2021/05/03 14:40:08;;;;;;;0.66;0.60;;;;;;;17.70;27.27;99509.28;2002241;81;21080;-78
2021/05/03 14:43:12;;;;;;;0.79;0.50;;;;;;;17.73;27.02;99500.44;2002591;81;20181;-78
2021/05/03 14:46:29;;;;;;;1.05;0.50;;;;;;;18.20;28.15;99492.78;2002506;81;20627;-78
2021/05/03 14:55:56;;;;;;;0.85;0.60;;;;;;;18.26;26.33;99490.78;2002644;81;20182;-77
2021/05/03 14:58:59;;;;;;;0.94;0.60;;;;;;;17.95;26.92;99483.06;2002223;81;20564;-76
2021/05/03 15:02:01;;;;;;;0.64;0.64;;;;;;;17.60;27.31;99480.72;2002767;81;20166;-76
2021/05/03 15:05:03;;;;;;;0.99;0.66;;;;;;;17.41;29.07;99483.03;2002414;81;20158;-77
2021/05/03 15:08:05;;;;;;;0.81;0.51;;;;;;;17.18;28.88;99478.47;2002786;81;20659;-77
2021/05/03 15:11:07;;;;;;;0.56;0.55;;;;;;;17.01;29.85;99478.13;2002771;81;20738;-76
2021/05/03 15:14:23;;;;;;;1.21;0.70;;;;;;;16.84;29.17;99475.97;2002517;81;20183;-76
2021/05/03 15:23:53;;;;;;;3.46;0.71;;;;;;;16.66;29.53;99471.22;2001795;81;20938;-76
2021/05/03 15:27:00;;;;;;;2.74;0.70;;;;;;;16.53;29.34;99465.47;2001951;81;20176;-77
2021/05/03 15:33:29;;;;;;;0.99;0.57;;;;;;;16.33;30.40;99443.25;2001470;81;20685;-76
2021/05/03 15:36:31;;;;;;;1.20;0.69;;;;;;;16.26;30.43;99448.72;2001104;81;20223;-77